Sandra Hugh — WDD9019 — position and weather

sailwx.info

Track history (hours):
 
Tides and Currents Weather Stations Pressure Air Temp Water Temp Dewpoint Dewpoint Depression Visibility Wind Speed Wind Dir Waves Ship Positions

Sandra Hugh

Owner: AMNAV Maritime Corporation, Oakland, CA. More information available from US FCC via Universal Licensing System and Coast Guard Vessel Documentation Center.

Last reported at 2017-Nov-24 03:30 UTC. Time now 2017-Nov-24 03:57 UTC.
Position N 37°48' W 122°18'.

Length 24 m; draft 4.9 m.

Type: Tug. MMSI: 367305920.

Date/timePositionNaut miles runAvg speedWind from/ knotsBaromVisibWave heightAir tempDewpointWater temp
2017-Nov-24 03:30N 37°48' W 122°18'0 0.6
2017-Nov-24 03:00N 37°48' W 122°18'3 5.7
2017-Nov-24 02:31N 37°48' W 122°22'2 4.5
2017-Nov-24 02:00N 37°49' W 122°19'0 0.9
2017-Nov-24 01:30N 37°49' W 122°19'0 0.0
2017-Nov-24 01:00N 37°49' W 122°19'0 0.0
2017-Nov-24 00:30N 37°49' W 122°19'0 0.0
2017-Nov-24 00:00N 37°49' W 122°19'0 0.0
2017-Nov-23 23:30N 37°49' W 122°19'0 0.0
2017-Nov-23 23:00N 37°49' W 122°19'0 0.0
2017-Nov-23 22:30N 37°49' W 122°19'0 0.0
2017-Nov-23 22:00N 37°49' W 122°19'0 0.0
2017-Nov-23 21:30N 37°49' W 122°19'0 0.0
2017-Nov-23 21:00N 37°49' W 122°19'0 0.0
2017-Nov-23 20:30N 37°49' W 122°19'0 0.0
2017-Nov-23 20:00N 37°49' W 122°19'0 0.0
2017-Nov-23 19:30N 37°49' W 122°19'0 0.0
2017-Nov-23 19:00N 37°49' W 122°19'0 0.0
2017-Nov-23 18:30N 37°49' W 122°19'0 0.0
2017-Nov-23 18:00N 37°49' W 122°19'0 0.0
2017-Nov-23 17:30N 37°49' W 122°19'0 0.0
2017-Nov-23 17:00N 37°49' W 122°19'0 0.0
2017-Nov-23 16:30N 37°49' W 122°19'0 0.0
2017-Nov-23 16:00N 37°49' W 122°19'0 0.0
2017-Nov-23 15:30N 37°49' W 122°19'0 0.0
2017-Nov-23 15:00N 37°49' W 122°19'0 0.0
2017-Nov-23 14:30N 37°49' W 122°19'0 0.0
2017-Nov-23 14:00N 37°49' W 122°19'0 0.0
2017-Nov-23 13:30N 37°49' W 122°19'0 0.0
2017-Nov-23 13:00N 37°49' W 122°19'0 0.0
2017-Nov-23 12:30N 37°49' W 122°19'2 3.5
2017-Nov-23 12:00N 37°48' W 122°20'2 3.4
2017-Nov-23 11:30N 37°48' W 122°18'0 0.1
2017-Nov-23 11:01N 37°48' W 122°18'1 2.1
2017-Nov-23 10:30N 37°48' W 122°20'2 3.2
2017-Nov-23 10:00N 37°49' W 122°19'0 0.0
2017-Nov-23 09:30N 37°49' W 122°19'0 0.0
2017-Nov-23 09:00N 37°49' W 122°19'0 0.0
2017-Nov-23 08:30N 37°49' W 122°19'0 0.0
2017-Nov-23 08:00N 37°49' W 122°19'0 0.0
2017-Nov-23 07:30N 37°49' W 122°19'0 0.0
2017-Nov-23 07:00N 37°49' W 122°19'0 0.0
2017-Nov-23 06:30N 37°49' W 122°19'0 0.0
2017-Nov-23 06:00N 37°49' W 122°19'0 0.0
2017-Nov-23 05:30N 37°49' W 122°19'0 0.0
2017-Nov-23 05:00N 37°49' W 122°19'0 0.0
2017-Nov-23 04:30N 37°49' W 122°19'0 0.0
2017-Nov-23 04:00N 37°49' W 122°19'0 0.0
2017-Nov-23 03:30N 37°49' W 122°19'2 3.4
2017-Nov-23 03:01N 37°48' W 122°21'1 2.0
2017-Nov-23 02:30N 37°48' W 122°19'0 0.2
2017-Nov-23 02:00N 37°48' W 122°19'0 0.0
2017-Nov-23 01:30N 37°48' W 122°19'1 1.7
2017-Nov-23 01:00N 37°49' W 122°20'0 0.0
2017-Nov-23 00:30N 37°49' W 122°20'1 2.6
2017-Nov-23 00:00N 37°48' W 122°21'0 0.9
2017-Nov-22 23:30N 37°48' W 122°21'0 0.5
2017-Nov-22 23:00N 37°48' W 122°21'0 0.0
2017-Nov-22 22:30N 37°48' W 122°21'0 0.0
2017-Nov-22 22:00N 37°48' W 122°21'0 0.0
2017-Nov-22 21:30N 37°48' W 122°21'0 0.0
2017-Nov-22 21:00N 37°48' W 122°21'0 0.0
2017-Nov-22 20:30N 37°48' W 122°21'0 0.0
2017-Nov-22 20:00N 37°48' W 122°21'0 0.2
2017-Nov-22 19:30N 37°48' W 122°21'  
2017-Nov-20 00:30N 38°02' W 122°23'8 5.9
2017-Nov-19 23:11N 38°03' W 122°13'0 0.2
2017-Nov-19 22:58N 38°03' W 122°13'0 0.2
2017-Nov-19 22:30N 38°04' W 122°13'1 2.4
2017-Nov-19 22:00N 38°03' W 122°15'2 2.5
2017-Nov-19 21:22N 38°03' W 122°17'411.1
2017-Nov-19 21:00N 38°02' W 122°22'510.6
2017-Nov-19 20:29N 37°58' W 122°26'510.7
2017-Nov-19 20:00N 37°53' W 122°24'510.0
2017-Nov-19 19:30N 37°49' W 122°21'2 3.6
2017-Nov-19 19:00N 37°49' W 122°19'0 0.0
2017-Nov-19 18:30N 37°49' W 122°19'0 0.0
2017-Nov-19 18:00N 37°49' W 122°19'0 0.0
2017-Nov-19 17:30N 37°49' W 122°19'1 2.3
2017-Nov-19 17:00N 37°49' W 122°20'1 2.4
2017-Nov-19 16:30N 37°48' W 122°19'1 1.1
2017-Nov-19 16:00N 37°48' W 122°18'0 0.8
2017-Nov-19 15:31N 37°48' W 122°18'3 5.7
2017-Nov-19 15:00N 37°48' W 122°21'1 1.4
2017-Nov-19 14:30N 37°48' W 122°21'0 0.2
2017-Nov-19 14:01N 37°48' W 122°21'1 1.5
2017-Nov-19 13:30N 37°49' W 122°20'0 0.0
2017-Nov-19 13:00N 37°49' W 122°20'0 0.1
2017-Nov-19 12:31N 37°49' W 122°20'0 0.0
2017-Nov-19 12:01N 37°49' W 122°20'1 1.7
2017-Nov-19 11:30N 37°49' W 122°19'0 0.2
2017-Nov-19 11:01N 37°49' W 122°19'0 0.0
2017-Nov-19 10:30N 37°49' W 122°19'0 0.0
2017-Nov-19 10:01N 37°49' W 122°19'0 0.0
2017-Nov-19 09:30N 37°49' W 122°19'0 0.0
2017-Nov-19 09:00N 37°49' W 122°19'0 0.0
2017-Nov-19 08:31N 37°49' W 122°19'0 0.0
2017-Nov-19 08:01N 37°49' W 122°19'0 0.0
2017-Nov-19 07:31N 37°49' W 122°19'0 0.0
2017-Nov-19 07:00N 37°49' W 122°19'0 0.0
2017-Nov-19 06:31N 37°49' W 122°19'0 0.0
2017-Nov-19 06:01N 37°49' W 122°19'0 0.0
2017-Nov-19 05:31N 37°49' W 122°19'0 0.0
2017-Nov-19 05:00N 37°49' W 122°19'0 0.0
2017-Nov-19 04:31N 37°49' W 122°19'0 0.0
2017-Nov-19 04:01N 37°49' W 122°19'0 0.0
2017-Nov-19 03:30N 37°49' W 122°19'0 0.0
2017-Nov-19 03:00N 37°49' W 122°19'0 0.0
2017-Nov-19 02:30N 37°49' W 122°19'0 0.0
2017-Nov-19 02:00N 37°49' W 122°19'1 1.4
2017-Nov-19 01:30N 37°49' W 122°19'1 3.0
2017-Nov-19 01:00N 37°48' W 122°18'1 1.7
2017-Nov-19 00:31N 37°48' W 122°17'1 3.0
2017-Nov-19 00:01N 37°48' W 122°19'0 0.1
2017-Nov-18 23:31N 37°48' W 122°19'0 0.1
2017-Nov-18 23:00N 37°48' W 122°19'0 0.0
2017-Nov-18 22:30N 37°48' W 122°19'4 7.2
2017-Nov-18 22:00N 37°50' W 122°22'510.2
2017-Nov-18 21:30N 37°55' W 122°25'710.0
2017-Nov-18 20:50N 38°01' W 122°23'3 9.4
2017-Nov-18 20:30N 38°03' W 122°19'4 8.8
2017-Nov-18 20:00N 38°04' W 122°14'5 0.3
2017-Nov-18 06:29N 38°02' W 122°08'0 0.1
2017-Nov-18 01:45N 38°02' W 122°08'4 2.8
2017-Nov-18 00:18N 38°04' W 122°13'2 7.5
2017-Nov-18 00:00N 38°03' W 122°16'5 7.8
2017-Nov-17 23:24N 38°02' W 122°22'3 7.8
2017-Nov-17 22:57N 37°59' W 122°25'4 8.0
2017-Nov-17 22:30N 37°56' W 122°26'3 6.7
2017-Nov-17 22:01N 37°54' W 122°22'1 1.4
2017-Nov-17 21:29N 37°55' W 122°22'0 0.1
2017-Nov-17 21:00N 37°55' W 122°22'0 0.7
2017-Nov-17 20:30N 37°55' W 122°22'1 1.1
2017-Nov-17 20:01N 37°54' W 122°22'1 2.9
2017-Nov-17 19:31N 37°54' W 122°24'1 2.7
2017-Nov-17 19:00N 37°54' W 122°25'1 2.0
2017-Nov-17 18:31N 37°53' W 122°25'2 4.8
2017-Nov-17 18:00N 37°51' W 122°23'4 7.5
2017-Nov-17 17:30N 37°49' W 122°20'2 3.1
2017-Nov-17 17:00N 37°49' W 122°19'0 0.0
2017-Nov-17 16:30N 37°49' W 122°19'0 0.0
2017-Nov-17 16:01N 37°49' W 122°19'0 0.0
2017-Nov-17 15:31N 37°49' W 122°19'0 0.0
2017-Nov-17 15:00N 37°49' W 122°19'0 0.0
2017-Nov-17 14:30N 37°49' W 122°19'0 0.0
2017-Nov-17 14:00N 37°49' W 122°19'0 0.0
2017-Nov-17 13:30N 37°49' W 122°19'0 0.0
2017-Nov-17 13:00N 37°49' W 122°19'0 0.0
2017-Nov-17 12:30N 37°49' W 122°19'0 0.0
2017-Nov-17 12:00N 37°49' W 122°19'0 0.0
2017-Nov-17 11:30N 37°49' W 122°19'0 0.0
2017-Nov-17 11:00N 37°49' W 122°19'0 0.0
2017-Nov-17 10:30N 37°49' W 122°19'0 0.0
2017-Nov-17 10:00N 37°49' W 122°19'0 0.0
2017-Nov-17 09:30N 37°49' W 122°19'0 0.0
2017-Nov-17 09:00N 37°49' W 122°19'0 0.0
2017-Nov-17 08:30N 37°49' W 122°19'0 0.0
2017-Nov-17 08:00N 37°49' W 122°19'0 0.0
2017-Nov-17 07:30N 37°49' W 122°19'0 0.0
2017-Nov-17 07:00N 37°49' W 122°19'0 0.0
2017-Nov-17 06:30N 37°49' W 122°19'0 0.0
2017-Nov-17 06:00N 37°49' W 122°19'0 0.0
2017-Nov-17 05:31N 37°49' W 122°19'0 0.0
2017-Nov-17 05:00N 37°49' W 122°19'4 7.3
2017-Nov-17 04:31N 37°49' W 122°23'5 9.8
2017-Nov-17 04:00N 37°48' W 122°29'1 2.7
2017-Nov-17 03:31N 37°49' W 122°29'4 7.6
2017-Nov-17 03:01N 37°50' W 122°24'4 8.1
2017-Nov-17 02:31N 37°48' W 122°19'0 1.0
2017-Nov-17 02:01N 37°48' W 122°19'1 1.6
2017-Nov-17 01:30N 37°48' W 122°18'1 2.5
2017-Nov-17 01:01N 37°48' W 122°19'0 0.1
2017-Nov-17 00:30N 37°48' W 122°19'0 0.0
2017-Nov-17 00:00N 37°48' W 122°19'0 0.0
2017-Nov-16 23:31N 37°48' W 122°19'0 0.0
2017-Nov-16 23:01N 37°48' W 122°19'0 0.1
2017-Nov-16 22:31N 37°48' W 122°19'1 1.6
2017-Nov-16 22:00N 37°48' W 122°20'1 3.0
2017-Nov-16 21:31N 37°49' W 122°19'0 0.6
2017-Nov-16 21:00N 37°49' W 122°19'0 0.0
2017-Nov-16 20:30N 37°49' W 122°19'0 0.0
2017-Nov-16 20:00N 37°49' W 122°19'0 0.0
2017-Nov-16 19:30N 37°49' W 122°19'0 0.0
2017-Nov-16 19:00N 37°49' W 122°19'0 0.0
2017-Nov-16 18:30N 37°49' W 122°19'0 0.0
2017-Nov-16 18:00N 37°49' W 122°19'0 0.0
2017-Nov-16 17:30N 37°49' W 122°19'0 0.0
2017-Nov-16 17:01N 37°49' W 122°19'0 0.0
2017-Nov-16 16:30N 37°49' W 122°19'0 0.0
2017-Nov-16 16:00N 37°49' W 122°19'0 0.0
2017-Nov-16 15:31N 37°49' W 122°19'0 0.0
2017-Nov-16 15:00N 37°49' W 122°19'0 0.0
2017-Nov-16 14:30N 37°49' W 122°19'0 0.0
2017-Nov-16 14:00N 37°49' W 122°19'0 0.0
2017-Nov-16 13:30N 37°49' W 122°19'0 0.0
2017-Nov-16 13:01N 37°49' W 122°19'0 0.0
2017-Nov-16 12:30N 37°49' W 122°19'0 0.0
2017-Nov-16 12:00N 37°49' W 122°19'0 0.0
2017-Nov-16 11:30N 37°49' W 122°19'0 0.0
2017-Nov-16 11:00N 37°49' W 122°19'0 0.0
2017-Nov-16 10:30N 37°49' W 122°19'0 0.0
2017-Nov-16 10:00N 37°49' W 122°19'0 0.0
2017-Nov-16 09:30N 37°49' W 122°19'0 0.0
2017-Nov-16 09:01N 37°49' W 122°19'0 0.0
2017-Nov-16 08:30N 37°49' W 122°19'0 0.0
2017-Nov-16 08:00N 37°49' W 122°19'0 0.0
2017-Nov-16 07:30N 37°49' W 122°19'0 0.0
2017-Nov-16 07:00N 37°49' W 122°19'0 0.0
2017-Nov-16 06:30N 37°49' W 122°19'0 0.0
2017-Nov-16 06:01N 37°49' W 122°19'0 0.0
2017-Nov-16 05:31N 37°49' W 122°19'0 0.0
2017-Nov-16 05:01N 37°49' W 122°19'0 0.0
2017-Nov-16 04:30N 37°49' W 122°19'0 0.0
2017-Nov-16 04:00N 37°49' W 122°19'2 3.4
2017-Nov-16 03:30N 37°48' W 122°20'0 0.8
2017-Nov-16 03:00N 37°48' W 122°20'2 3.7
2017-Nov-16 02:30N 37°47' W 122°22'1 2.1
2017-Nov-16 02:01N 37°48' W 122°23'2 3.4
2017-Nov-16 01:30N 37°48' W 122°21'0 0.0
2017-Nov-16 01:00N 37°48' W 122°21'1 1.6
2017-Nov-16 00:30N 37°49' W 122°20'0 0.6
2017-Nov-16 00:01N 37°49' W 122°20'2 4.5
2017-Nov-15 23:30N 37°48' W 122°23'2 4.1
2017-Nov-15 23:00N 37°48' W 122°20'2 4.4
2017-Nov-15 22:30N 37°48' W 122°17'1 2.8
2017-Nov-15 22:01N 37°48' W 122°19'3 5.9
2017-Nov-15 21:30N 37°48' W 122°23'4 7.0
2017-Nov-15 21:01N 37°49' W 122°27'4 7.4
2017-Nov-15 20:30N 37°48' W 122°32'1 1.5
2017-Nov-15 20:00N 37°47' W 122°32'2 3.4
2017-Nov-15 19:31N 37°48' W 122°30'5 9.2
2017-Nov-15 19:01N 37°49' W 122°24'5 9.1
2017-Nov-15 18:30N 37°49' W 122°19'0 0.1
2017-Nov-15 18:00N 37°49' W 122°19'0 0.0
2017-Nov-15 17:30N 37°49' W 122°19'0 0.0
2017-Nov-15 17:00N 37°49' W 122°19'0 0.0
2017-Nov-15 16:30N 37°49' W 122°19'0 0.0
2017-Nov-15 16:00N 37°49' W 122°19'0 0.0
2017-Nov-15 15:30N 37°49' W 122°19'0 0.0
2017-Nov-15 15:00N 37°49' W 122°19'0 0.0
2017-Nov-15 14:30N 37°49' W 122°19'2 3.3
2017-Nov-15 14:01N 37°48' W 122°18'0 0.0
2017-Nov-15 13:31N 37°48' W 122°18'1 1.5
2017-Nov-15 13:00N 37°48' W 122°18'2 4.8
2017-Nov-15 12:30N 37°48' W 122°21'0 0.8
2017-Nov-15 12:00N 37°48' W 122°21'2 3.9
2017-Nov-15 11:30N 37°49' W 122°19'0 0.0
2017-Nov-15 11:00N 37°49' W 122°19'0 0.0
2017-Nov-15 10:30N 37°49' W 122°19'0 0.0
2017-Nov-15 10:00N 37°49' W 122°19'0 0.0
2017-Nov-15 09:30N 37°49' W 122°19'0 0.0
2017-Nov-15 09:00N 37°49' W 122°19'0 0.0
2017-Nov-15 08:30N 37°49' W 122°19'0 0.0
2017-Nov-15 08:00N 37°49' W 122°19'0 0.0
2017-Nov-15 07:30N 37°49' W 122°19'0 0.0
2017-Nov-15 07:00N 37°49' W 122°19'0 0.0
2017-Nov-15 06:31N 37°49' W 122°19'0 0.0
2017-Nov-15 06:00N 37°49' W 122°19'0 0.0
2017-Nov-15 05:30N 37°49' W 122°19'0 0.0
2017-Nov-15 05:00N 37°49' W 122°19'0 0.0
2017-Nov-15 04:31N 37°49' W 122°19'0 0.0
2017-Nov-15 04:00N 37°49' W 122°19'0 0.0
2017-Nov-15 03:30N 37°49' W 122°19'0 0.0
2017-Nov-15 03:00N 37°49' W 122°19'0 0.0
2017-Nov-15 02:30N 37°49' W 122°19'0 0.0
2017-Nov-15 02:00N 37°49' W 122°19'0 0.0
2017-Nov-15 01:31N 37°49' W 122°19'1 1.8
2017-Nov-15 01:00N 37°49' W 122°19'0 0.2
2017-Nov-15 00:30N 37°49' W 122°19'0 0.0
2017-Nov-15 00:01N 37°49' W 122°19'1 1.0
2017-Nov-14 23:30N 37°49' W 122°20'1 1.8
2017-Nov-14 23:00N 37°48' W 122°20'2 3.2
2017-Nov-14 22:30N 37°48' W 122°21'1 2.1
2017-Nov-14 22:00N 37°49' W 122°20'0 0.0
2017-Nov-14 21:30N 37°49' W 122°20'0 0.0
2017-Nov-14 21:00N 37°49' W 122°20'0 0.0
2017-Nov-14 20:30N 37°49' W 122°20'0 0.8
2017-Nov-14 20:00N 37°49' W 122°20'1 1.5
2017-Nov-14 19:31N 37°48' W 122°20'2 3.9
2017-Nov-14 19:01N 37°48' W 122°18'0 0.7
2017-Nov-14 18:31N 37°48' W 122°17'3 5.2
2017-Nov-14 18:00N 37°48' W 122°21'0 0.4
2017-Nov-14 17:31N 37°48' W 122°21'1 1.3
2017-Nov-14 17:00N 37°49' W 122°20'0 0.0
2017-Nov-14 16:30N 37°49' W 122°20'0 0.0
2017-Nov-14 16:00N 37°49' W 122°20'0 0.0
2017-Nov-14 15:31N 37°49' W 122°20'0 0.0
2017-Nov-14 15:00N 37°49' W 122°20'1 1.2
2017-Nov-14 14:31N 37°49' W 122°19'0 0.9
2017-Nov-14 14:00N 37°49' W 122°20'2 4.9
2017-Nov-14 13:31N 37°48' W 122°23'2 4.5
2017-Nov-14 13:00N 37°49' W 122°20'0 0.0
2017-Nov-14 12:30N 37°49' W 122°20'0 0.0
2017-Nov-14 12:00N 37°49' W 122°20'0 0.6
2017-Nov-14 11:31N 37°49' W 122°20'0 0.5
2017-Nov-14 11:01N 37°49' W 122°20'0 0.4
2017-Nov-14 10:31N 37°49' W 122°19'1 1.5
2017-Nov-14 10:00N 37°49' W 122°19'0 0.0
2017-Nov-14 09:31N 37°49' W 122°19'0 0.0
2017-Nov-14 09:00N 37°49' W 122°19'0 0.0
2017-Nov-14 08:30N 37°49' W 122°19'0 0.0
2017-Nov-14 08:01N 37°49' W 122°19'0 0.0
2017-Nov-14 07:31N 37°49' W 122°19'0 0.0
2017-Nov-14 07:00N 37°49' W 122°19'0 0.0
2017-Nov-14 06:30N 37°49' W 122°19'0 0.0
2017-Nov-14 06:00N 37°49' W 122°19'0 0.0
2017-Nov-14 05:30N 37°49' W 122°19'0 0.0
2017-Nov-14 05:00N 37°49' W 122°19'0 0.0
2017-Nov-14 04:31N 37°49' W 122°19'0 0.0
2017-Nov-14 04:00N 37°49' W 122°19'  
Track history (hours):
 
Tides and Currents Weather Stations Pressure Air Temp Water Temp Dewpoint Dewpoint Depression Visibility Wind Speed Wind Dir Waves Ship Positions

Sandra Hugh

Owner: AMNAV Maritime Corporation, Oakland, CA. More information available from US FCC via Universal Licensing System and Coast Guard Vessel Documentation Center.

Last reported at 2017-Nov-24 03:30 UTC. Time now 2017-Nov-24 03:57 UTC.
Position N 37°48' W 122°18'.

Length 24 m; draft 4.9 m.

Type: Tug. MMSI: 367305920.

Date/timePositionNaut miles runAvg speedWind from/ knotsBaromVisibWave heightAir tempDewpointWater temp
2017-Nov-24 03:30N 37°48' W 122°18'0 0.6
2017-Nov-24 03:00N 37°48' W 122°18'3 5.7
2017-Nov-24 02:31N 37°48' W 122°22'2 4.5
2017-Nov-24 02:00N 37°49' W 122°19'0 0.9
2017-Nov-24 01:30N 37°49' W 122°19'0 0.0
2017-Nov-24 01:00N 37°49' W 122°19'0 0.0
2017-Nov-24 00:30N 37°49' W 122°19'0 0.0
2017-Nov-24 00:00N 37°49' W 122°19'0 0.0
2017-Nov-23 23:30N 37°49' W 122°19'0 0.0
2017-Nov-23 23:00N 37°49' W 122°19'0 0.0
2017-Nov-23 22:30N 37°49' W 122°19'0 0.0
2017-Nov-23 22:00N 37°49' W 122°19'0 0.0
2017-Nov-23 21:30N 37°49' W 122°19'0 0.0
2017-Nov-23 21:00N 37°49' W 122°19'0 0.0
2017-Nov-23 20:30N 37°49' W 122°19'0 0.0
2017-Nov-23 20:00N 37°49' W 122°19'0 0.0
2017-Nov-23 19:30N 37°49' W 122°19'0 0.0
2017-Nov-23 19:00N 37°49' W 122°19'0 0.0
2017-Nov-23 18:30N 37°49' W 122°19'0 0.0
2017-Nov-23 18:00N 37°49' W 122°19'0 0.0
2017-Nov-23 17:30N 37°49' W 122°19'0 0.0
2017-Nov-23 17:00N 37°49' W 122°19'0 0.0
2017-Nov-23 16:30N 37°49' W 122°19'0 0.0
2017-Nov-23 16:00N 37°49' W 122°19'0 0.0
2017-Nov-23 15:30N 37°49' W 122°19'0 0.0
2017-Nov-23 15:00N 37°49' W 122°19'0 0.0
2017-Nov-23 14:30N 37°49' W 122°19'0 0.0
2017-Nov-23 14:00N 37°49' W 122°19'0 0.0
2017-Nov-23 13:30N 37°49' W 122°19'0 0.0
2017-Nov-23 13:00N 37°49' W 122°19'0 0.0
2017-Nov-23 12:30N 37°49' W 122°19'2 3.5
2017-Nov-23 12:00N 37°48' W 122°20'2 3.4
2017-Nov-23 11:30N 37°48' W 122°18'0 0.1
2017-Nov-23 11:01N 37°48' W 122°18'1 2.1
2017-Nov-23 10:30N 37°48' W 122°20'2 3.2
2017-Nov-23 10:00N 37°49' W 122°19'0 0.0
2017-Nov-23 09:30N 37°49' W 122°19'0 0.0
2017-Nov-23 09:00N 37°49' W 122°19'0 0.0
2017-Nov-23 08:30N 37°49' W 122°19'0 0.0
2017-Nov-23 08:00N 37°49' W 122°19'0 0.0
2017-Nov-23 07:30N 37°49' W 122°19'0 0.0
2017-Nov-23 07:00N 37°49' W 122°19'0 0.0
2017-Nov-23 06:30N 37°49' W 122°19'0 0.0
2017-Nov-23 06:00N 37°49' W 122°19'0 0.0
2017-Nov-23 05:30N 37°49' W 122°19'0 0.0
2017-Nov-23 05:00N 37°49' W 122°19'0 0.0
2017-Nov-23 04:30N 37°49' W 122°19'0 0.0
2017-Nov-23 04:00N 37°49' W 122°19'0 0.0
2017-Nov-23 03:30N 37°49' W 122°19'2 3.4
2017-Nov-23 03:01N 37°48' W 122°21'1 2.0
2017-Nov-23 02:30N 37°48' W 122°19'0 0.2
2017-Nov-23 02:00N 37°48' W 122°19'0 0.0
2017-Nov-23 01:30N 37°48' W 122°19'1 1.7
2017-Nov-23 01:00N 37°49' W 122°20'0 0.0
2017-Nov-23 00:30N 37°49' W 122°20'1 2.6
2017-Nov-23 00:00N 37°48' W 122°21'0 0.9
2017-Nov-22 23:30N 37°48' W 122°21'0 0.5
2017-Nov-22 23:00N 37°48' W 122°21'0 0.0
2017-Nov-22 22:30N 37°48' W 122°21'0 0.0
2017-Nov-22 22:00N 37°48' W 122°21'0 0.0
2017-Nov-22 21:30N 37°48' W 122°21'0 0.0
2017-Nov-22 21:00N 37°48' W 122°21'0 0.0
2017-Nov-22 20:30N 37°48' W 122°21'0 0.0
2017-Nov-22 20:00N 37°48' W 122°21'0 0.2
2017-Nov-22 19:30N 37°48' W 122°21'  
2017-Nov-20 00:30N 38°02' W 122°23'8 5.9
2017-Nov-19 23:11N 38°03' W 122°13'0 0.2
2017-Nov-19 22:58N 38°03' W 122°13'0 0.2
2017-Nov-19 22:30N 38°04' W 122°13'1 2.4
2017-Nov-19 22:00N 38°03' W 122°15'2 2.5
2017-Nov-19 21:22N 38°03' W 122°17'411.1
2017-Nov-19 21:00N 38°02' W 122°22'510.6
2017-Nov-19 20:29N 37°58' W 122°26'510.7
2017-Nov-19 20:00N 37°53' W 122°24'510.0
2017-Nov-19 19:30N 37°49' W 122°21'2 3.6
2017-Nov-19 19:00N 37°49' W 122°19'0 0.0
2017-Nov-19 18:30N 37°49' W 122°19'0 0.0
2017-Nov-19 18:00N 37°49' W 122°19'0 0.0
2017-Nov-19 17:30N 37°49' W 122°19'1 2.3
2017-Nov-19 17:00N 37°49' W 122°20'1 2.4
2017-Nov-19 16:30N 37°48' W 122°19'1 1.1
2017-Nov-19 16:00N 37°48' W 122°18'0 0.8
2017-Nov-19 15:31N 37°48' W 122°18'3 5.7
2017-Nov-19 15:00N 37°48' W 122°21'1 1.4
2017-Nov-19 14:30N 37°48' W 122°21'0 0.2
2017-Nov-19 14:01N 37°48' W 122°21'1 1.5
2017-Nov-19 13:30N 37°49' W 122°20'0 0.0
2017-Nov-19 13:00N 37°49' W 122°20'0 0.1
2017-Nov-19 12:31N 37°49' W 122°20'0 0.0
2017-Nov-19 12:01N 37°49' W 122°20'1 1.7
2017-Nov-19 11:30N 37°49' W 122°19'0 0.2
2017-Nov-19 11:01N 37°49' W 122°19'0 0.0
2017-Nov-19 10:30N 37°49' W 122°19'0 0.0
2017-Nov-19 10:01N 37°49' W 122°19'0 0.0
2017-Nov-19 09:30N 37°49' W 122°19'0 0.0
2017-Nov-19 09:00N 37°49' W 122°19'0 0.0
2017-Nov-19 08:31N 37°49' W 122°19'0 0.0
2017-Nov-19 08:01N 37°49' W 122°19'0 0.0
2017-Nov-19 07:31N 37°49' W 122°19'0 0.0
2017-Nov-19 07:00N 37°49' W 122°19'0 0.0
2017-Nov-19 06:31N 37°49' W 122°19'0 0.0
2017-Nov-19 06:01N 37°49' W 122°19'0 0.0
2017-Nov-19 05:31N 37°49' W 122°19'0 0.0
2017-Nov-19 05:00N 37°49' W 122°19'0 0.0
2017-Nov-19 04:31N 37°49' W 122°19'0 0.0
2017-Nov-19 04:01N 37°49' W 122°19'0 0.0
2017-Nov-19 03:30N 37°49' W 122°19'0 0.0
2017-Nov-19 03:00N 37°49' W 122°19'0 0.0
2017-Nov-19 02:30N 37°49' W 122°19'0 0.0
2017-Nov-19 02:00N 37°49' W 122°19'1 1.4
2017-Nov-19 01:30N 37°49' W 122°19'1 3.0
2017-Nov-19 01:00N 37°48' W 122°18'1 1.7
2017-Nov-19 00:31N 37°48' W 122°17'1 3.0
2017-Nov-19 00:01N 37°48' W 122°19'0 0.1
2017-Nov-18 23:31N 37°48' W 122°19'0 0.1
2017-Nov-18 23:00N 37°48' W 122°19'0 0.0
2017-Nov-18 22:30N 37°48' W 122°19'4 7.2
2017-Nov-18 22:00N 37°50' W 122°22'510.2
2017-Nov-18 21:30N 37°55' W 122°25'710.0
2017-Nov-18 20:50N 38°01' W 122°23'3 9.4
2017-Nov-18 20:30N 38°03' W 122°19'4 8.8
2017-Nov-18 20:00N 38°04' W 122°14'5 0.3
2017-Nov-18 06:29N 38°02' W 122°08'0 0.1
2017-Nov-18 01:45N 38°02' W 122°08'4 2.8
2017-Nov-18 00:18N 38°04' W 122°13'2 7.5
2017-Nov-18 00:00N 38°03' W 122°16'5 7.8
2017-Nov-17 23:24N 38°02' W 122°22'3 7.8
2017-Nov-17 22:57N 37°59' W 122°25'4 8.0
2017-Nov-17 22:30N 37°56' W 122°26'3 6.7
2017-Nov-17 22:01N 37°54' W 122°22'1 1.4
2017-Nov-17 21:29N 37°55' W 122°22'0 0.1
2017-Nov-17 21:00N 37°55' W 122°22'0 0.7
2017-Nov-17 20:30N 37°55' W 122°22'1 1.1
2017-Nov-17 20:01N 37°54' W 122°22'1 2.9
2017-Nov-17 19:31N 37°54' W 122°24'1 2.7
2017-Nov-17 19:00N 37°54' W 122°25'1 2.0
2017-Nov-17 18:31N 37°53' W 122°25'2 4.8
2017-Nov-17 18:00N 37°51' W 122°23'4 7.5
2017-Nov-17 17:30N 37°49' W 122°20'2 3.1
2017-Nov-17 17:00N 37°49' W 122°19'0 0.0
2017-Nov-17 16:30N 37°49' W 122°19'0 0.0
2017-Nov-17 16:01N 37°49' W 122°19'0 0.0
2017-Nov-17 15:31N 37°49' W 122°19'0 0.0
2017-Nov-17 15:00N 37°49' W 122°19'0 0.0
2017-Nov-17 14:30N 37°49' W 122°19'0 0.0
2017-Nov-17 14:00N 37°49' W 122°19'0 0.0
2017-Nov-17 13:30N 37°49' W 122°19'0 0.0
2017-Nov-17 13:00N 37°49' W 122°19'0 0.0
2017-Nov-17 12:30N 37°49' W 122°19'0 0.0
2017-Nov-17 12:00N 37°49' W 122°19'0 0.0
2017-Nov-17 11:30N 37°49' W 122°19'0 0.0
2017-Nov-17 11:00N 37°49' W 122°19'0 0.0
2017-Nov-17 10:30N 37°49' W 122°19'0 0.0
2017-Nov-17 10:00N 37°49' W 122°19'0 0.0
2017-Nov-17 09:30N 37°49' W 122°19'0 0.0
2017-Nov-17 09:00N 37°49' W 122°19'0 0.0
2017-Nov-17 08:30N 37°49' W 122°19'0 0.0
2017-Nov-17 08:00N 37°49' W 122°19'0 0.0
2017-Nov-17 07:30N 37°49' W 122°19'0 0.0
2017-Nov-17 07:00N 37°49' W 122°19'0 0.0
2017-Nov-17 06:30N 37°49' W 122°19'0 0.0
2017-Nov-17 06:00N 37°49' W 122°19'0 0.0
2017-Nov-17 05:31N 37°49' W 122°19'0 0.0
2017-Nov-17 05:00N 37°49' W 122°19'4 7.3
2017-Nov-17 04:31N 37°49' W 122°23'5 9.8
2017-Nov-17 04:00N 37°48' W 122°29'1 2.7
2017-Nov-17 03:31N 37°49' W 122°29'4 7.6
2017-Nov-17 03:01N 37°50' W 122°24'4 8.1
2017-Nov-17 02:31N 37°48' W 122°19'0 1.0
2017-Nov-17 02:01N 37°48' W 122°19'1 1.6
2017-Nov-17 01:30N 37°48' W 122°18'1 2.5
2017-Nov-17 01:01N 37°48' W 122°19'0 0.1
2017-Nov-17 00:30N 37°48' W 122°19'0 0.0
2017-Nov-17 00:00N 37°48' W 122°19'0 0.0
2017-Nov-16 23:31N 37°48' W 122°19'0 0.0
2017-Nov-16 23:01N 37°48' W 122°19'0 0.1
2017-Nov-16 22:31N 37°48' W 122°19'1 1.6
2017-Nov-16 22:00N 37°48' W 122°20'1 3.0
2017-Nov-16 21:31N 37°49' W 122°19'0 0.6
2017-Nov-16 21:00N 37°49' W 122°19'0 0.0
2017-Nov-16 20:30N 37°49' W 122°19'0 0.0
2017-Nov-16 20:00N 37°49' W 122°19'0 0.0
2017-Nov-16 19:30N 37°49' W 122°19'0 0.0
2017-Nov-16 19:00N 37°49' W 122°19'0 0.0
2017-Nov-16 18:30N 37°49' W 122°19'0 0.0
2017-Nov-16 18:00N 37°49' W 122°19'0 0.0
2017-Nov-16 17:30N 37°49' W 122°19'0 0.0
2017-Nov-16 17:01N 37°49' W 122°19'0 0.0
2017-Nov-16 16:30N 37°49' W 122°19'0 0.0
2017-Nov-16 16:00N 37°49' W 122°19'0 0.0
2017-Nov-16 15:31N 37°49' W 122°19'0 0.0
2017-Nov-16 15:00N 37°49' W 122°19'0 0.0
2017-Nov-16 14:30N 37°49' W 122°19'0 0.0
2017-Nov-16 14:00N 37°49' W 122°19'0 0.0
2017-Nov-16 13:30N 37°49' W 122°19'0 0.0
2017-Nov-16 13:01N 37°49' W 122°19'0 0.0
2017-Nov-16 12:30N 37°49' W 122°19'0 0.0
2017-Nov-16 12:00N 37°49' W 122°19'0 0.0
2017-Nov-16 11:30N 37°49' W 122°19'0 0.0
2017-Nov-16 11:00N 37°49' W 122°19'0 0.0
2017-Nov-16 10:30N 37°49' W 122°19'0 0.0
2017-Nov-16 10:00N 37°49' W 122°19'0 0.0
2017-Nov-16 09:30N 37°49' W 122°19'0 0.0
2017-Nov-16 09:01N 37°49' W 122°19'0 0.0
2017-Nov-16 08:30N 37°49' W 122°19'0 0.0
2017-Nov-16 08:00N 37°49' W 122°19'0 0.0
2017-Nov-16 07:30N 37°49' W 122°19'0 0.0
2017-Nov-16 07:00N 37°49' W 122°19'0 0.0
2017-Nov-16 06:30N 37°49' W 122°19'0 0.0
2017-Nov-16 06:01N 37°49' W 122°19'0 0.0
2017-Nov-16 05:31N 37°49' W 122°19'0 0.0
2017-Nov-16 05:01N 37°49' W 122°19'0 0.0
2017-Nov-16 04:30N 37°49' W 122°19'0 0.0
2017-Nov-16 04:00N 37°49' W 122°19'2 3.4
2017-Nov-16 03:30N 37°48' W 122°20'0 0.8
2017-Nov-16 03:00N 37°48' W 122°20'2 3.7
2017-Nov-16 02:30N 37°47' W 122°22'1 2.1
2017-Nov-16 02:01N 37°48' W 122°23'2 3.4
2017-Nov-16 01:30N 37°48' W 122°21'0 0.0
2017-Nov-16 01:00N 37°48' W 122°21'1 1.6
2017-Nov-16 00:30N 37°49' W 122°20'0 0.6
2017-Nov-16 00:01N 37°49' W 122°20'2 4.5
2017-Nov-15 23:30N 37°48' W 122°23'2 4.1
2017-Nov-15 23:00N 37°48' W 122°20'2 4.4
2017-Nov-15 22:30N 37°48' W 122°17'1 2.8
2017-Nov-15 22:01N 37°48' W 122°19'3 5.9
2017-Nov-15 21:30N 37°48' W 122°23'4 7.0
2017-Nov-15 21:01N 37°49' W 122°27'4 7.4
2017-Nov-15 20:30N 37°48' W 122°32'1 1.5
2017-Nov-15 20:00N 37°47' W 122°32'2 3.4
2017-Nov-15 19:31N 37°48' W 122°30'5 9.2
2017-Nov-15 19:01N 37°49' W 122°24'5 9.1
2017-Nov-15 18:30N 37°49' W 122°19'0 0.1
2017-Nov-15 18:00N 37°49' W 122°19'0 0.0
2017-Nov-15 17:30N 37°49' W 122°19'0 0.0
2017-Nov-15 17:00N 37°49' W 122°19'0 0.0
2017-Nov-15 16:30N 37°49' W 122°19'0 0.0
2017-Nov-15 16:00N 37°49' W 122°19'0 0.0
2017-Nov-15 15:30N 37°49' W 122°19'0 0.0
2017-Nov-15 15:00N 37°49' W 122°19'0 0.0
2017-Nov-15 14:30N 37°49' W 122°19'2 3.3
2017-Nov-15 14:01N 37°48' W 122°18'0 0.0
2017-Nov-15 13:31N 37°48' W 122°18'1 1.5
2017-Nov-15 13:00N 37°48' W 122°18'2 4.8
2017-Nov-15 12:30N 37°48' W 122°21'0 0.8
2017-Nov-15 12:00N 37°48' W 122°21'2 3.9
2017-Nov-15 11:30N 37°49' W 122°19'0 0.0
2017-Nov-15 11:00N 37°49' W 122°19'0 0.0
2017-Nov-15 10:30N 37°49' W 122°19'0 0.0
2017-Nov-15 10:00N 37°49' W 122°19'0 0.0
2017-Nov-15 09:30N 37°49' W 122°19'0 0.0
2017-Nov-15 09:00N 37°49' W 122°19'0 0.0
2017-Nov-15 08:30N 37°49' W 122°19'0 0.0
2017-Nov-15 08:00N 37°49' W 122°19'0 0.0
2017-Nov-15 07:30N 37°49' W 122°19'0 0.0
2017-Nov-15 07:00N 37°49' W 122°19'0 0.0
2017-Nov-15 06:31N 37°49' W 122°19'0 0.0
2017-Nov-15 06:00N 37°49' W 122°19'0 0.0
2017-Nov-15 05:30N 37°49' W 122°19'0 0.0
2017-Nov-15 05:00N 37°49' W 122°19'0 0.0
2017-Nov-15 04:31N 37°49' W 122°19'0 0.0
2017-Nov-15 04:00N 37°49' W 122°19'0 0.0
2017-Nov-15 03:30N 37°49' W 122°19'0 0.0
2017-Nov-15 03:00N 37°49' W 122°19'0 0.0
2017-Nov-15 02:30N 37°49' W 122°19'0 0.0
2017-Nov-15 02:00N 37°49' W 122°19'0 0.0
2017-Nov-15 01:31N 37°49' W 122°19'1 1.8
2017-Nov-15 01:00N 37°49' W 122°19'0 0.2
2017-Nov-15 00:30N 37°49' W 122°19'0 0.0
2017-Nov-15 00:01N 37°49' W 122°19'1 1.0
2017-Nov-14 23:30N 37°49' W 122°20'1 1.8
2017-Nov-14 23:00N 37°48' W 122°20'2 3.2
2017-Nov-14 22:30N 37°48' W 122°21'1 2.1
2017-Nov-14 22:00N 37°49' W 122°20'0 0.0
2017-Nov-14 21:30N 37°49' W 122°20'0 0.0
2017-Nov-14 21:00N 37°49' W 122°20'0 0.0
2017-Nov-14 20:30N 37°49' W 122°20'0 0.8
2017-Nov-14 20:00N 37°49' W 122°20'1 1.5
2017-Nov-14 19:31N 37°48' W 122°20'2 3.9
2017-Nov-14 19:01N 37°48' W 122°18'0 0.7
2017-Nov-14 18:31N 37°48' W 122°17'3 5.2
2017-Nov-14 18:00N 37°48' W 122°21'0 0.4
2017-Nov-14 17:31N 37°48' W 122°21'1 1.3
2017-Nov-14 17:00N 37°49' W 122°20'0 0.0
2017-Nov-14 16:30N 37°49' W 122°20'0 0.0
2017-Nov-14 16:00N 37°49' W 122°20'0 0.0
2017-Nov-14 15:31N 37°49' W 122°20'0 0.0
2017-Nov-14 15:00N 37°49' W 122°20'1 1.2
2017-Nov-14 14:31N 37°49' W 122°19'0 0.9
2017-Nov-14 14:00N 37°49' W 122°20'2 4.9
2017-Nov-14 13:31N 37°48' W 122°23'2 4.5
2017-Nov-14 13:00N 37°49' W 122°20'0 0.0
2017-Nov-14 12:30N 37°49' W 122°20'0 0.0
2017-Nov-14 12:00N 37°49' W 122°20'0 0.6
2017-Nov-14 11:31N 37°49' W 122°20'0 0.5
2017-Nov-14 11:01N 37°49' W 122°20'0 0.4
2017-Nov-14 10:31N 37°49' W 122°19'1 1.5
2017-Nov-14 10:00N 37°49' W 122°19'0 0.0
2017-Nov-14 09:31N 37°49' W 122°19'0 0.0
2017-Nov-14 09:00N 37°49' W 122°19'0 0.0
2017-Nov-14 08:30N 37°49' W 122°19'0 0.0
2017-Nov-14 08:01N 37°49' W 122°19'0 0.0
2017-Nov-14 07:31N 37°49' W 122°19'0 0.0
2017-Nov-14 07:00N 37°49' W 122°19'0 0.0
2017-Nov-14 06:30N 37°49' W 122°19'0 0.0
2017-Nov-14 06:00N 37°49' W 122°19'0 0.0
2017-Nov-14 05:30N 37°49' W 122°19'0 0.0
2017-Nov-14 05:00N 37°49' W 122°19'0 0.0
2017-Nov-14 04:31N 37°49' W 122°19'0 0.0
2017-Nov-14 04:00N 37°49' W 122°19'  

Dump ship's entire track history